Terminal Aerodrome Forecast
Issued by NWS

Home | Current Version | Previous Version | Text Only | Print | Product List | Glossary On
Versions: 1 2 3 4 5 6 7 8 9 10 11 12 13
292
FTUS42 TJSJ 251735
TAFISX
TAF
TISX 251735Z 2518/2618 10013KT P6SM SCT025
     FM260200 06009KT P6SM FEW025
     FM261300 10012KT P6SM SCT025=

USA.gov is the U.S. government's official web portal to all federal, state and local government web resources and services.